Time;durP1;ratioP1;P1;durP2;ratioP2;P2;SDS_P1;SDS_P2;PMS_P1;PMS_P2;Temp;Humidity;BMP_temperature;BMP_pressure;BME280_temperature;BME280_humidity;BME280_pressure;Samples;Min_cycle;Max_cycle;Signal;HPM_P1;HPM_P2
2024/01/17 00:01:22;;;;;;;9.77;5.23;;;;;;;;;;4908580;29;20549;-85
2024/01/17 00:04:27;;;;;;;9.37;5.07;;;;;;;;;;4908191;29;20541;-86
2024/01/17 00:07:31;;;;;;;11.03;5.80;;;;;;;;;;4908385;29;20617;-86
2024/01/17 00:10:35;;;;;;;9.07;5.33;;;;;;;;;;4898121;29;20554;-85
2024/01/17 00:13:39;;;;;;;9.13;5.40;;;;;;;;;;4920347;29;20538;-85
2024/01/17 00:16:44;;;;;;;7.07;5.13;;;;;;;;;;4908390;29;20652;-85
2024/01/17 00:19:49;;;;;;;10.67;5.60;;;;;;;;;;4897715;29;21074;-85
2024/01/17 00:22:54;;;;;;;9.07;5.20;;;;;;;;;;4912152;29;20553;-85
2024/01/17 00:25:58;;;;;;;10.83;5.90;;;;;;;;;;4901555;29;20950;-85
2024/01/17 00:29:02;;;;;;;10.03;5.30;;;;;;;;;;4924093;29;20597;-85
2024/01/17 00:32:06;;;;;;;7.83;5.43;;;;;;;;;;4900647;29;20537;-85
2024/01/17 00:35:10;;;;;;;9.50;5.43;;;;;;;;;;4923590;29;20971;-85
2024/01/17 00:38:15;;;;;;;7.77;4.97;;;;;;;;;;4923529;29;20534;-85
2024/01/17 00:41:19;;;;;;;9.10;6.07;;;;;;;;;;4911698;29;20538;-85
2024/01/17 00:44:26;;;;;;;11.13;5.87;;;;;;;;;;4922748;29;20549;-85
2024/01/17 00:47:31;;;;;;;9.20;5.33;;;;;;;;;;4911148;29;20617;-85
2024/01/17 00:50:35;;;;;;;10.33;6.20;;;;;;;;;;4923456;29;20569;-85
2024/01/17 00:53:39;;;;;;;7.90;5.57;;;;;;;;;;4923677;29;20895;-85
2024/01/17 00:56:43;;;;;;;9.30;5.73;;;;;;;;;;4900918;29;21185;-86
2024/01/17 00:59:48;;;;;;;7.60;5.80;;;;;;;;;;4900803;29;20557;-85
2024/01/17 01:02:52;;;;;;;10.27;6.33;;;;;;;;;;4900377;29;20542;-86
2024/01/17 01:05:56;;;;;;;8.17;5.03;;;;;;;;;;4910970;29;20624;-85
2024/01/17 01:09:00;;;;;;;8.37;5.93;;;;;;;;;;4922189;29;21160;-87
2024/01/17 01:12:05;;;;;;;7.83;5.30;;;;;;;;;;4889698;29;20545;-85
2024/01/17 01:15:09;;;;;;;9.27;6.00;;;;;;;;;;4910173;29;20652;-86
2024/01/17 01:18:14;;;;;;;10.30;6.23;;;;;;;;;;4910670;29;20537;-85
2024/01/17 01:21:19;;;;;;;9.10;5.53;;;;;;;;;;4923019;29;20586;-85
2024/01/17 01:24:23;;;;;;;8.57;5.27;;;;;;;;;;4922667;29;20875;-86
2024/01/17 01:27:28;;;;;;;10.63;6.20;;;;;;;;;;4911194;29;21125;-85
2024/01/17 01:30:32;;;;;;;8.60;5.27;;;;;;;;;;4910831;29;20561;-86
2024/01/17 01:33:36;;;;;;;8.83;6.20;;;;;;;;;;4899409;29;20554;-85
2024/01/17 01:36:40;;;;;;;8.97;6.03;;;;;;;;;;4899051;29;20625;-86
2024/01/17 01:39:44;;;;;;;10.10;6.37;;;;;;;;;;4922883;29;20537;-85
2024/01/17 01:42:49;;;;;;;9.20;4.97;;;;;;;;;;4910441;29;21102;-85
2024/01/17 01:45:53;;;;;;;10.33;5.97;;;;;;;;;;4899353;29;20616;-85
2024/01/17 01:48:57;;;;;;;10.93;6.40;;;;;;;;;;4910864;29;20597;-86
2024/01/17 01:52:02;;;;;;;11.93;5.70;;;;;;;;;;4922701;29;20558;-85
2024/01/17 01:55:06;;;;;;;9.50;5.50;;;;;;;;;;4910612;29;20620;-85
2024/01/17 01:58:11;;;;;;;11.93;6.57;;;;;;;;;;4910850;29;20542;-85
2024/01/17 02:01:17;;;;;;;7.43;4.97;;;;;;;;;;4910668;29;20911;-86
2024/01/17 02:04:22;;;;;;;10.50;6.03;;;;;;;;;;4899379;29;20546;-85
2024/01/17 02:07:27;;;;;;;8.00;5.37;;;;;;;;;;4910309;29;20574;-85
2024/01/17 02:10:32;;;;;;;9.93;5.60;;;;;;;;;;4910772;29;20546;-85
2024/01/17 02:13:36;;;;;;;10.13;6.00;;;;;;;;;;4900356;29;20546;-85
2024/01/17 02:16:42;;;;;;;8.50;5.67;;;;;;;;;;4898821;29;21212;-85
2024/01/17 02:19:46;;;;;;;8.80;6.00;;;;;;;;;;4910091;29;21078;-85
2024/01/17 02:22:50;;;;;;;8.97;5.97;;;;;;;;;;4899626;29;20557;-85
2024/01/17 02:25:56;;;;;;;10.17;5.70;;;;;;;;;;4900075;29;20621;-86
2024/01/17 02:29:00;;;;;;;9.10;5.90;;;;;;;;;;4899723;29;20593;-86
2024/01/17 02:32:06;;;;;;;10.37;5.73;;;;;;;;;;4911469;29;20558;-85
2024/01/17 02:35:10;;;;;;;8.23;5.57;;;;;;;;;;4910547;29;20621;-86
2024/01/17 02:38:14;;;;;;;9.20;6.00;;;;;;;;;;4900177;29;20529;-85
2024/01/17 02:41:18;;;;;;;8.53;6.63;;;;;;;;;;4899748;29;20541;-85
2024/01/17 02:44:23;;;;;;;13.20;5.77;;;;;;;;;;4899765;29;20550;-85
2024/01/17 02:47:28;;;;;;;10.67;6.47;;;;;;;;;;4910608;29;20545;-85
2024/01/17 02:50:32;;;;;;;10.07;6.27;;;;;;;;;;4910404;29;20562;-85
2024/01/17 02:53:36;;;;;;;9.97;6.37;;;;;;;;;;4910526;29;20542;-86
2024/01/17 02:56:40;;;;;;;10.30;6.77;;;;;;;;;;4910207;29;20624;-86
2024/01/17 02:59:44;;;;;;;12.70;6.27;;;;;;;;;;4909978;29;20557;-85
2024/01/17 03:02:49;;;;;;;12.37;6.83;;;;;;;;;;4910046;29;21129;-85
2024/01/17 03:05:54;;;;;;;8.20;6.10;;;;;;;;;;4921006;29;20640;-85
2024/01/17 03:08:58;;;;;;;10.53;6.47;;;;;;;;;;4909420;29;20601;-85
2024/01/17 03:12:03;;;;;;;9.67;6.57;;;;;;;;;;4899503;29;20554;-85
2024/01/17 03:15:11;;;;;;;12.07;6.67;;;;;;;;;;4908507;29;20640;-85
2024/01/17 03:18:16;;;;;;;10.63;6.33;;;;;;;;;;4920657;29;20545;-85
2024/01/17 03:21:20;;;;;;;10.10;6.37;;;;;;;;;;4898645;29;20557;-85
2024/01/17 03:24:25;;;;;;;9.07;6.13;;;;;;;;;;4898383;29;20541;-84
2024/01/17 03:27:30;;;;;;;10.43;6.50;;;;;;;;;;4898923;29;20553;-85
2024/01/17 03:30:36;;;;;;;10.10;6.50;;;;;;;;;;4910059;29;20538;-85
2024/01/17 03:33:41;;;;;;;9.27;5.70;;;;;;;;;;4899024;29;20908;-85
2024/01/17 03:36:45;;;;;;;11.30;6.27;;;;;;;;;;4898560;29;20608;-86
2024/01/17 03:39:49;;;;;;;10.23;5.67;;;;;;;;;;4909903;29;20546;-86
2024/01/17 03:42:54;;;;;;;11.30;6.30;;;;;;;;;;4921506;29;20914;-85
2024/01/17 03:45:58;;;;;;;12.17;5.87;;;;;;;;;;4921782;29;20629;-85
2024/01/17 03:49:02;;;;;;;9.70;6.10;;;;;;;;;;4921212;29;20593;-85
2024/01/17 03:52:09;;;;;;;9.63;5.60;;;;;;;;;;4898849;29;20557;-85
2024/01/17 03:55:14;;;;;;;9.27;5.57;;;;;;;;;;4922387;29;20632;-85
2024/01/17 03:58:18;;;;;;;11.83;5.87;;;;;;;;;;4913201;29;20557;-85
2024/01/17 04:01:22;;;;;;;10.33;6.33;;;;;;;;;;4924673;29;20549;-85
2024/01/17 04:04:26;;;;;;;8.50;6.00;;;;;;;;;;4902637;29;20553;-85
2024/01/17 04:07:31;;;;;;;9.40;5.93;;;;;;;;;;4902684;29;20553;-85
2024/01/17 04:10:35;;;;;;;9.93;6.10;;;;;;;;;;4913229;29;20534;-85
2024/01/17 04:13:42;;;;;;;9.57;6.37;;;;;;;;;;4912981;29;20542;-85
2024/01/17 04:16:46;;;;;;;9.27;6.07;;;;;;;;;;4912423;29;21216;-86
2024/01/17 04:19:51;;;;;;;9.80;6.13;;;;;;;;;;4912870;29;20534;-85
2024/01/17 04:22:55;;;;;;;12.10;6.43;;;;;;;;;;4912300;29;20545;-86
2024/01/17 04:25:59;;;;;;;8.30;6.13;;;;;;;;;;4913017;29;20971;-85
2024/01/17 04:29:03;;;;;;;7.63;5.40;;;;;;;;;;4923866;29;21201;-85
2024/01/17 04:32:08;;;;;;;8.53;5.70;;;;;;;;;;4912364;29;20549;-85
2024/01/17 04:35:12;;;;;;;9.37;6.40;;;;;;;;;;4912185;29;20959;-85
2024/01/17 04:38:16;;;;;;;8.60;6.20;;;;;;;;;;4923733;29;20541;-86
2024/01/17 04:41:21;;;;;;;11.40;6.80;;;;;;;;;;4900985;29;20545;-85
2024/01/17 04:44:30;;;;;;;11.17;6.57;;;;;;;;;;4901260;29;20557;-85
2024/01/17 04:47:34;;;;;;;12.17;6.53;;;;;;;;;;4923147;29;20541;-85
2024/01/17 04:50:38;;;;;;;10.53;6.83;;;;;;;;;;4912468;29;20562;-86
2024/01/17 04:53:43;;;;;;;11.23;7.50;;;;;;;;;;4924479;29;20545;-85
2024/01/17 04:56:47;;;;;;;9.63;7.33;;;;;;;;;;4911860;29;20620;-87
2024/01/17 04:59:51;;;;;;;10.03;6.63;;;;;;;;;;4900526;29;20553;-85
2024/01/17 05:02:55;;;;;;;12.07;7.47;;;;;;;;;;4900819;29;21085;-85
2024/01/17 05:06:00;;;;;;;12.50;7.93;;;;;;;;;;4889808;29;20616;-85
2024/01/17 05:09:07;;;;;;;9.60;6.93;;;;;;;;;;4911878;29;20600;-86
2024/01/17 05:12:11;;;;;;;11.50;7.07;;;;;;;;;;4900602;29;20545;-85
2024/01/17 05:15:16;;;;;;;9.37;7.13;;;;;;;;;;4911178;29;20648;-85
2024/01/17 05:18:19;;;;;;;10.93;7.43;;;;;;;;;;4911908;29;20888;-85
2024/01/17 05:21:23;;;;;;;13.37;7.73;;;;;;;;;;4910495;29;20554;-85
2024/01/17 05:24:27;;;;;;;9.97;7.60;;;;;;;;;;4899779;29;20546;-86
2024/01/17 05:27:32;;;;;;;13.23;8.83;;;;;;;;;;4900889;29;20541;-86
2024/01/17 05:30:36;;;;;;;11.13;7.33;;;;;;;;;;4921909;29;20553;-85
2024/01/17 05:33:40;;;;;;;12.53;7.97;;;;;;;;;;4911033;29;20545;-85
2024/01/17 05:36:44;;;;;;;13.53;8.90;;;;;;;;;;4888635;29;20616;-86
2024/01/17 05:39:48;;;;;;;19.33;8.73;;;;;;;;;;4910353;29;20543;-85
2024/01/17 05:42:53;;;;;;;12.93;8.93;;;;;;;;;;4910606;29;20549;-85
2024/01/17 05:45:57;;;;;;;12.53;8.17;;;;;;;;;;4911105;29;20625;-85
2024/01/17 05:49:02;;;;;;;12.67;9.03;;;;;;;;;;4900086;29;20605;-85
2024/01/17 05:52:06;;;;;;;15.87;10.07;;;;;;;;;;4921566;29;20558;-85
2024/01/17 05:55:12;;;;;;;11.60;9.00;;;;;;;;;;4900074;29;20628;-85
2024/01/17 05:58:16;;;;;;;14.37;9.40;;;;;;;;;;4922732;29;20549;-85
2024/01/17 06:01:21;;;;;;;12.63;9.37;;;;;;;;;;4899206;29;20553;-86
2024/01/17 06:04:25;;;;;;;18.53;10.67;;;;;;;;;;4910338;29;21115;-84
2024/01/17 06:07:29;;;;;;;17.93;11.10;;;;;;;;;;4898882;29;21125;-85
2024/01/17 06:10:34;;;;;;;18.27;9.50;;;;;;;;;;4900326;29;20612;-85
2024/01/17 06:13:38;;;;;;;18.07;10.33;;;;;;;;;;4922080;29;20549;-87
2024/01/17 06:16:42;;;;;;;14.00;9.97;;;;;;;;;;4909962;29;20671;-87
2024/01/17 06:19:46;;;;;;;21.37;10.90;;;;;;;;;;4922092;29;20538;-85
2024/01/17 06:22:50;;;;;;;16.57;10.77;;;;;;;;;;4910509;29;20561;-86
2024/01/17 06:25:55;;;;;;;17.37;10.83;;;;;;;;;;4899626;29;20624;-86
2024/01/17 06:29:00;;;;;;;18.80;10.73;;;;;;;;;;4909819;29;20628;-85
2024/01/17 06:32:04;;;;;;;20.67;11.07;;;;;;;;;;4909666;29;20553;-85
2024/01/17 06:35:11;;;;;;;18.13;10.97;;;;;;;;;;4888188;29;20624;-85
2024/01/17 06:38:15;;;;;;;15.27;10.43;;;;;;;;;;4909893;29;20556;-85
2024/01/17 06:41:20;;;;;;;17.23;11.27;;;;;;;;;;4898009;29;20545;-86
2024/01/17 06:44:28;;;;;;;15.47;10.87;;;;;;;;;;4910861;29;20553;-86
2024/01/17 06:47:32;;;;;;;16.43;10.07;;;;;;;;;;4908321;29;20552;-86
2024/01/17 06:50:36;;;;;;;14.83;9.83;;;;;;;;;;4910214;29;20613;-82
2024/01/17 06:53:40;;;;;;;14.03;9.83;;;;;;;;;;4898330;29;20550;-87
2024/01/17 06:56:44;;;;;;;15.67;9.47;;;;;;;;;;4907840;29;21177;-86
2024/01/17 06:59:48;;;;;;;17.07;10.00;;;;;;;;;;4918430;29;20561;-87
2024/01/17 07:02:53;;;;;;;21.03;9.77;;;;;;;;;;4907811;29;20541;-88
2024/01/17 07:05:57;;;;;;;24.60;9.70;;;;;;;;;;4907496;29;21208;-87
2024/01/17 07:09:01;;;;;;;15.17;10.73;;;;;;;;;;4908359;29;20597;-87
2024/01/17 07:12:05;;;;;;;16.20;9.83;;;;;;;;;;4919771;29;20557;-87
2024/01/17 07:15:09;;;;;;;14.40;10.33;;;;;;;;;;4896065;29;20648;-89
2024/01/17 07:18:13;;;;;;;19.07;10.90;;;;;;;;;;4919896;29;20916;-89
2024/01/17 07:21:18;;;;;;;12.67;10.00;;;;;;;;;;4896857;29;20546;-90
2024/01/17 07:24:22;;;;;;;14.03;10.17;;;;;;;;;;4896706;29;20566;-90
2024/01/17 07:27:26;;;;;;;13.37;8.97;;;;;;;;;;4908597;29;21110;-89
2024/01/17 07:30:30;;;;;;;14.40;9.73;;;;;;;;;;4921807;29;20616;-90
2024/01/17 07:33:35;;;;;;;14.27;9.27;;;;;;;;;;4901601;29;20553;-90
2024/01/17 07:36:39;;;;;;;17.33;9.40;;;;;;;;;;4901147;29;20625;-90
2024/01/17 07:39:43;;;;;;;17.03;9.80;;;;;;;;;;4912297;29;20553;-88
2024/01/17 07:42:47;;;;;;;16.97;10.90;;;;;;;;;;4912279;29;20561;-90
2024/01/17 07:45:52;;;;;;;17.03;11.00;;;;;;;;;;4912326;29;20632;-90
2024/01/17 07:48:56;;;;;;;15.40;10.60;;;;;;;;;;4901498;29;20557;-90
2024/01/17 07:52:00;;;;;;;15.50;11.47;;;;;;;;;;4912049;29;20557;-90
2024/01/17 07:55:05;;;;;;;16.57;11.47;;;;;;;;;;4900748;29;20612;-90
2024/01/17 07:58:11;;;;;;;15.20;10.23;;;;;;;;;;4912185;29;20561;-90
2024/01/17 08:01:16;;;;;;;14.17;10.70;;;;;;;;;;4901071;29;20545;-90
2024/01/17 08:04:21;;;;;;;17.30;11.17;;;;;;;;;;4902175;29;20572;-87
2024/01/17 08:07:26;;;;;;;15.57;11.23;;;;;;;;;;4912605;29;20545;-86
2024/01/17 08:10:30;;;;;;;15.03;10.93;;;;;;;;;;4900569;29;20597;-89
2024/01/17 08:13:34;;;;;;;15.97;10.23;;;;;;;;;;4900571;29;20557;-90
2024/01/17 08:16:38;;;;;;;19.20;11.33;;;;;;;;;;4910940;29;20644;-87
2024/01/17 08:19:42;;;;;;;16.00;10.60;;;;;;;;;;4900817;29;20554;-87
2024/01/17 08:22:47;;;;;;;19.53;11.20;;;;;;;;;;4911881;29;20541;-88
2024/01/17 08:25:51;;;;;;;14.03;10.23;;;;;;;;;;4900768;29;20616;-87
2024/01/17 08:28:56;;;;;;;15.73;10.83;;;;;;;;;;4900623;29;20549;-87
2024/01/17 08:32:00;;;;;;;13.57;9.87;;;;;;;;;;4910941;29;20893;-87
2024/01/17 08:35:05;;;;;;;16.60;9.70;;;;;;;;;;4911661;29;21364;-87
2024/01/17 08:38:09;;;;;;;12.93;8.40;;;;;;;;;;4900128;29;20541;-87
2024/01/17 08:41:18;;;;;;;11.37;8.23;;;;;;;;;;4909857;29;20537;-86
2024/01/17 08:44:23;;;;;;;11.37;8.20;;;;;;;;;;4899790;29;20542;-87
2024/01/17 08:47:26;;;;;;;11.93;6.93;;;;;;;;;;4910742;29;21050;-87
2024/01/17 08:50:32;;;;;;;10.60;7.73;;;;;;;;;;4910752;29;20617;-88
2024/01/17 08:53:36;;;;;;;11.73;6.93;;;;;;;;;;4899790;29;20541;-87
2024/01/17 08:56:41;;;;;;;9.27;6.90;;;;;;;;;;4899489;29;20628;-87
2024/01/17 08:59:47;;;;;;;11.10;7.10;;;;;;;;;;4909949;29;20537;-87
2024/01/17 09:02:51;;;;;;;10.27;7.10;;;;;;;;;;4909643;29;20545;-87
2024/01/17 09:05:55;;;;;;;9.27;6.53;;;;;;;;;;4909219;29;20628;-88
2024/01/17 09:09:00;;;;;;;14.97;7.40;;;;;;;;;;4877854;29;20546;-87
2024/01/17 09:12:05;;;;;;;10.83;6.90;;;;;;;;;;4899252;29;20542;-87
2024/01/17 09:15:10;;;;;;;9.70;6.70;;;;;;;;;;4909612;29;20655;-87
2024/01/17 09:18:17;;;;;;;13.90;7.40;;;;;;;;;;4909185;29;20549;-87
2024/01/17 09:21:22;;;;;;;12.30;6.97;;;;;;;;;;4898468;29;20549;-88
2024/01/17 09:24:26;;;;;;;10.20;6.47;;;;;;;;;;4898900;29;20545;-89
2024/01/17 09:27:35;;;;;;;10.57;7.00;;;;;;;;;;4888785;29;20569;-87
2024/01/17 09:30:40;;;;;;;12.73;7.37;;;;;;;;;;4899571;29;20593;-87
2024/01/17 09:33:44;;;;;;;11.63;7.10;;;;;;;;;;4909921;29;20542;-88
2024/01/17 09:36:50;;;;;;;15.77;7.23;;;;;;;;;;4887438;29;20625;-88
2024/01/17 09:39:54;;;;;;;14.80;7.10;;;;;;;;;;4909036;29;20546;-87
2024/01/17 09:42:58;;;;;;;15.00;7.03;;;;;;;;;;4898031;29;21094;-86
2024/01/17 09:46:04;;;;;;;13.83;7.33;;;;;;;;;;4909205;29;20629;-87
2024/01/17 09:49:08;;;;;;;11.97;6.90;;;;;;;;;;4909783;29;20550;-86
2024/01/17 09:52:15;;;;;;;12.93;6.83;;;;;;;;;;4921567;29;20553;-86
2024/01/17 09:55:20;;;;;;;12.80;7.10;;;;;;;;;;4909918;29;20632;-86
2024/01/17 09:58:30;;;;;;;12.30;6.87;;;;;;;;;;4910076;29;20541;-87
2024/01/17 10:01:35;;;;;;;105.67;15.77;;;;;;;;;;4909460;29;21161;-87
2024/01/17 10:04:41;;;;;;;62.17;10.20;;;;;;;;;;4919240;29;21156;-87
2024/01/17 10:07:46;;;;;;;132.23;17.33;;;;;;;;;;4898689;29;20569;-87
2024/01/17 10:10:51;;;;;;;10.97;6.80;;;;;;;;;;4898813;29;21017;-87
2024/01/17 10:13:55;;;;;;;11.20;6.57;;;;;;;;;;4897188;29;20554;-88
2024/01/17 10:16:59;;;;;;;12.20;6.30;;;;;;;;;;4884763;29;20560;-88
2024/01/17 10:20:04;;;;;;;22.33;7.23;;;;;;;;;;4906184;29;20534;-88
2024/01/17 10:23:08;;;;;;;12.20;6.77;;;;;;;;;;4918201;29;20541;-88
2024/01/17 10:26:13;;;;;;;8.97;6.50;;;;;;;;;;4921461;29;20971;-87
2024/01/17 10:29:18;;;;;;;9.23;6.40;;;;;;;;;;4901678;29;20561;-86
2024/01/17 10:32:22;;;;;;;11.67;6.20;;;;;;;;;;4911135;29;20549;-86
2024/01/17 10:35:27;;;;;;;10.60;6.37;;;;;;;;;;4872242;29;20629;-86
2024/01/17 10:38:32;;;;;;;9.83;6.27;;;;;;;;;;4882935;29;20562;-85
2024/01/17 10:41:59;;;;;;;7.07;5.40;;;;;;;;;;4879608;29;20562;-86
2024/01/17 10:45:05;;;;;;;11.20;6.80;;;;;;;;;;4902094;29;20685;-85
2024/01/17 10:48:10;;;;;;;10.07;6.47;;;;;;;;;;4889986;29;21099;-86
2024/01/17 10:51:19;;;;;;;9.40;6.50;;;;;;;;;;4889834;29;20626;-85
2024/01/17 10:54:27;;;;;;;9.47;5.73;;;;;;;;;;4900589;29;20593;-87
2024/01/17 10:57:34;;;;;;;10.87;7.90;;;;;;;;;;4908166;29;20542;-87
2024/01/17 11:00:43;;;;;;;9.83;6.43;;;;;;;;;;4907483;29;20900;-88
2024/01/17 11:03:49;;;;;;;9.33;6.30;;;;;;;;;;4876033;29;20903;-88
2024/01/17 11:06:54;;;;;;;8.83;6.17;;;;;;;;;;4907472;29;20557;-88
2024/01/17 11:10:04;;;;;;;9.07;6.57;;;;;;;;;;4907541;29;20565;-86
2024/01/17 11:13:09;;;;;;;9.13;6.10;;;;;;;;;;4908500;29;20541;-88
2024/01/17 11:16:16;;;;;;;7.07;5.53;;;;;;;;;;4896047;29;20648;-89
2024/01/17 11:19:21;;;;;;;9.53;6.10;;;;;;;;;;4908059;29;20541;-87
2024/01/17 11:22:26;;;;;;;7.47;5.67;;;;;;;;;;4905377;29;20593;-87
2024/01/17 11:25:41;;;;;;;8.27;5.73;;;;;;;;;;4919045;29;20633;-87
2024/01/17 11:28:59;;;;;;;8.17;5.73;;;;;;;;;;4907087;29;20546;-87
2024/01/17 11:32:15;;;;;;;7.70;6.00;;;;;;;;;;4896879;29;20928;-87
2024/01/17 11:35:43;;;;;;;9.17;5.90;;;;;;;;;;4896099;29;20613;-87
2024/01/17 11:38:48;;;;;;;10.30;7.17;;;;;;;;;;4907088;29;20549;-88
2024/01/17 11:41:52;;;;;;;10.57;6.97;;;;;;;;;;4919396;29;20561;-86
2024/01/17 11:44:56;;;;;;;9.50;6.70;;;;;;;;;;4895742;29;20625;-87
2024/01/17 11:48:18;;;;;;;9.00;6.83;;;;;;;;;;4854207;29;20638;-88
2024/01/17 11:51:25;;;;;;;9.80;6.57;;;;;;;;;;4858961;29;20614;-89
2024/01/17 11:54:33;;;;;;;9.10;6.73;;;;;;;;;;4887829;29;20570;-89
2024/01/17 11:57:37;;;;;;;9.17;7.13;;;;;;;;;;4877422;29;20566;-90
2024/01/17 12:00:42;;;;;;;9.10;6.57;;;;;;;;;;4899791;29;20542;-89
2024/01/17 12:03:46;;;;;;;11.10;7.80;;;;;;;;;;4877260;29;20567;-90
2024/01/17 12:06:52;;;;;;;10.40;7.20;;;;;;;;;;4888247;29;20613;-88
2024/01/17 12:09:56;;;;;;;12.00;6.70;;;;;;;;;;4877439;29;20546;-87
2024/01/17 12:13:00;;;;;;;11.17;6.80;;;;;;;;;;4887985;29;20534;-89
2024/01/17 12:16:05;;;;;;;9.37;6.90;;;;;;;;;;4888471;29;20645;-87
2024/01/17 12:19:15;;;;;;;10.10;6.80;;;;;;;;;;4881123;29;20554;-88
2024/01/17 12:22:20;;;;;;;9.50;7.03;;;;;;;;;;4883355;29;21167;-87
2024/01/17 12:25:23;;;;;;;10.30;6.37;;;;;;;;;;4883459;29;20626;-88
2024/01/17 12:28:29;;;;;;;7.80;5.60;;;;;;;;;;4883807;29;20547;-88
2024/01/17 12:31:33;;;;;;;10.47;7.30;;;;;;;;;;4861953;29;20602;-88
2024/01/17 12:34:37;;;;;;;8.63;5.83;;;;;;;;;;4851362;29;20913;-88
2024/01/17 12:37:41;;;;;;;8.73;5.80;;;;;;;;;;4883942;29;20614;-88
2024/01/17 12:40:48;;;;;;;10.10;6.37;;;;;;;;;;4884346;29;20543;-88
2024/01/17 12:43:52;;;;;;;7.70;5.70;;;;;;;;;;4873774;29;20547;-88
2024/01/17 12:47:00;;;;;;;8.03;6.10;;;;;;;;;;4863811;29;20194;-88
2024/01/17 12:50:04;;;;;;;9.73;6.90;;;;;;;;;;4874084;29;20547;-87
2024/01/17 12:53:08;;;;;;;6.90;5.63;;;;;;;;;;4888084;29;20612;-87
2024/01/17 12:56:14;;;;;;;8.90;6.10;;;;;;;;;;4895371;29;20668;-87
2024/01/17 12:59:19;;;;;;;9.23;6.10;;;;;;;;;;4918583;29;20546;-88
2024/01/17 13:02:24;;;;;;;7.93;6.33;;;;;;;;;;4904637;29;20538;-88
2024/01/17 13:05:28;;;;;;;8.97;6.83;;;;;;;;;;4890897;29;20622;-88
2024/01/17 13:08:33;;;;;;;9.20;6.47;;;;;;;;;;4905822;29;20566;-88
2024/01/17 13:11:37;;;;;;;8.70;6.23;;;;;;;;;;4894608;29;20598;-89
2024/01/17 13:14:41;;;;;;;8.80;6.80;;;;;;;;;;4914379;29;20607;-88
2024/01/17 13:17:48;;;;;;;8.30;6.17;;;;;;;;;;4892070;29;20889;-87
2024/01/17 13:20:52;;;;;;;10.67;6.33;;;;;;;;;;4891008;29;20554;-90
2024/01/17 13:23:56;;;;;;;10.20;6.77;;;;;;;;;;4875222;29;20548;-89
2024/01/17 13:27:01;;;;;;;11.30;6.30;;;;;;;;;;4863225;29;20679;-89
2024/01/17 13:30:07;;;;;;;9.10;7.03;;;;;;;;;;4874444;29;20556;-84
2024/01/17 13:33:14;;;;;;;9.40;6.70;;;;;;;;;;4843962;29;20541;-89
2024/01/17 13:36:18;;;;;;;10.87;6.93;;;;;;;;;;4876327;29;20657;-90
2024/01/17 13:39:27;;;;;;;11.40;7.23;;;;;;;;;;4891244;29;20547;-90
2024/01/17 13:42:32;;;;;;;10.00;7.03;;;;;;;;;;4892921;29;20554;-89
2024/01/17 13:45:36;;;;;;;11.10;7.50;;;;;;;;;;4902069;29;20634;-88
2024/01/17 13:48:41;;;;;;;9.57;7.43;;;;;;;;;;4900016;29;20563;-88
2024/01/17 13:51:45;;;;;;;8.83;7.30;;;;;;;;;;4888997;29;20614;-92
2024/01/17 13:54:49;;;;;;;10.07;7.13;;;;;;;;;;4900441;29;21201;-90
2024/01/17 13:57:53;;;;;;;9.80;7.47;;;;;;;;;;4896733;29;21118;-87
2024/01/17 14:00:59;;;;;;;9.40;7.67;;;;;;;;;;4900729;29;20594;-89
2024/01/17 14:04:04;;;;;;;9.73;7.17;;;;;;;;;;4873714;29;20563;-89
2024/01/17 14:07:08;;;;;;;10.33;7.77;;;;;;;;;;4884507;29;20547;-89
2024/01/17 14:10:14;;;;;;;12.37;8.37;;;;;;;;;;4852276;29;20547;-91
2024/01/17 14:13:19;;;;;;;11.50;8.23;;;;;;;;;;4884313;29;20878;-92
2024/01/17 14:16:24;;;;;;;12.97;9.00;;;;;;;;;;4862861;29;20650;-90
2024/01/17 14:19:30;;;;;;;12.80;8.00;;;;;;;;;;4874211;29;21088;-89
2024/01/17 14:22:34;;;;;;;13.00;8.90;;;;;;;;;;4864998;29;20544;-88
2024/01/17 14:25:39;;;;;;;12.27;8.33;;;;;;;;;;4883166;29;20635;-89
2024/01/17 14:28:43;;;;;;;13.10;8.07;;;;;;;;;;4873415;29;20555;-90
2024/01/17 14:31:48;;;;;;;11.40;7.70;;;;;;;;;;4883398;29;20618;-91
2024/01/17 14:34:52;;;;;;;12.07;8.00;;;;;;;;;;4883020;29;20973;-89
2024/01/17 14:37:57;;;;;;;13.37;8.13;;;;;;;;;;4883150;29;20567;-90
2024/01/17 14:41:01;;;;;;;13.07;8.20;;;;;;;;;;4850744;29;20559;-91
2024/01/17 14:44:05;;;;;;;10.97;7.93;;;;;;;;;;4882939;29;20525;-87
2024/01/17 14:47:09;;;;;;;9.83;7.53;;;;;;;;;;4871819;29;20190;-87
2024/01/17 14:50:15;;;;;;;10.30;7.37;;;;;;;;;;4881884;29;20194;-87
2024/01/17 14:53:19;;;;;;;11.87;7.43;;;;;;;;;;4882284;29;20619;-91
2024/01/17 14:56:23;;;;;;;8.93;6.90;;;;;;;;;;4881941;29;20576;-90
2024/01/17 14:59:27;;;;;;;12.10;7.70;;;;;;;;;;4882818;29;20656;-86
2024/01/17 15:02:32;;;;;;;10.53;6.90;;;;;;;;;;4883252;29;21115;-87
2024/01/17 15:05:36;;;;;;;10.53;7.40;;;;;;;;;;4873831;29;20960;-86
2024/01/17 15:08:42;;;;;;;10.80;6.70;;;;;;;;;;4882807;29;20190;-86
2024/01/17 15:11:50;;;;;;;10.67;7.60;;;;;;;;;;4850784;29;20607;-88
2024/01/17 15:14:54;;;;;;;11.77;7.47;;;;;;;;;;4861386;29;20572;-85
2024/01/17 15:17:58;;;;;;;9.10;6.87;;;;;;;;;;4883540;29;20551;-85
2024/01/17 15:21:02;;;;;;;9.10;6.23;;;;;;;;;;4851430;29;20551;-85
2024/01/17 15:24:08;;;;;;;8.77;6.97;;;;;;;;;;4882595;29;20194;-87
2024/01/17 15:27:12;;;;;;;11.90;6.73;;;;;;;;;;4861493;29;20547;-85
2024/01/17 15:30:17;;;;;;;10.13;6.83;;;;;;;;;;4860775;29;20185;-88
2024/01/17 15:33:21;;;;;;;7.90;5.83;;;;;;;;;;4871839;29;20548;-85
2024/01/17 15:36:26;;;;;;;9.40;6.70;;;;;;;;;;4860868;29;20226;-86
2024/01/17 15:39:31;;;;;;;9.23;6.80;;;;;;;;;;4871687;29;20191;-88
2024/01/17 15:42:37;;;;;;;8.20;6.90;;;;;;;;;;4882146;29;20632;-88
2024/01/17 15:45:41;;;;;;;9.80;5.83;;;;;;;;;;4850451;29;20233;-85
2024/01/17 15:48:45;;;;;;;11.83;6.63;;;;;;;;;;4896155;29;20188;-85
2024/01/17 15:51:50;;;;;;;9.93;6.77;;;;;;;;;;4874296;29;20214;-86
2024/01/17 15:54:54;;;;;;;10.23;6.23;;;;;;;;;;4876226;29;20226;-87
2024/01/17 15:57:58;;;;;;;9.40;6.37;;;;;;;;;;4875685;29;20194;-86
2024/01/17 16:01:03;;;;;;;8.03;6.17;;;;;;;;;;4887390;29;20253;-85
2024/01/17 16:04:07;;;;;;;7.77;6.10;;;;;;;;;;4875724;29;20186;-87
2024/01/17 16:07:13;;;;;;;9.80;6.57;;;;;;;;;;4889938;29;20190;-85
2024/01/17 16:10:18;;;;;;;10.10;6.63;;;;;;;;;;4877410;29;20186;-88
2024/01/17 16:13:22;;;;;;;9.03;6.10;;;;;;;;;;4886667;29;20217;-87
2024/01/17 16:16:27;;;;;;;10.30;6.20;;;;;;;;;;4867004;29;20237;-86
2024/01/17 16:19:31;;;;;;;10.63;6.50;;;;;;;;;;4886906;29;20190;-88
2024/01/17 16:22:35;;;;;;;6.93;5.20;;;;;;;;;;4875577;29;20628;-85
2024/01/17 16:25:41;;;;;;;8.27;6.20;;;;;;;;;;4889304;29;20229;-86
2024/01/17 16:28:46;;;;;;;7.27;5.73;;;;;;;;;;4875546;29;20186;-86
2024/01/17 16:31:50;;;;;;;9.23;5.93;;;;;;;;;;4875301;29;20186;-87
2024/01/17 16:34:55;;;;;;;7.97;5.17;;;;;;;;;;4875420;29;20222;-86
2024/01/17 16:37:59;;;;;;;5.83;4.97;;;;;;;;;;4876034;29;20186;-86
2024/01/17 16:41:03;;;;;;;8.30;4.97;;;;;;;;;;4886181;29;20191;-87
2024/01/17 16:44:08;;;;;;;10.77;5.30;;;;;;;;;;4885399;29;20190;-86
2024/01/17 16:47:12;;;;;;;7.87;5.43;;;;;;;;;;4886894;29;20205;-86
2024/01/17 16:50:18;;;;;;;8.63;5.77;;;;;;;;;;4876752;29;20202;-86
2024/01/17 16:53:24;;;;;;;6.67;5.43;;;;;;;;;;4886632;29;20218;-87
2024/01/17 16:56:28;;;;;;;7.50;5.33;;;;;;;;;;4863703;29;20222;-88
2024/01/17 16:59:33;;;;;;;7.50;4.80;;;;;;;;;;4874383;29;20183;-88
2024/01/17 17:02:37;;;;;;;7.33;5.17;;;;;;;;;;4873418;29;20202;-87
2024/01/17 17:05:41;;;;;;;7.60;4.83;;;;;;;;;;4884294;29;20711;-87
2024/01/17 17:08:45;;;;;;;6.67;4.73;;;;;;;;;;4874052;29;20190;-87
2024/01/17 17:11:50;;;;;;;6.57;5.10;;;;;;;;;;4884517;29;20188;-88
2024/01/17 17:14:54;;;;;;;7.43;4.53;;;;;;;;;;4885884;29;20230;-87
2024/01/17 17:17:59;;;;;;;7.93;4.83;;;;;;;;;;4873671;29;20652;-87
2024/01/17 17:21:04;;;;;;;6.47;4.33;;;;;;;;;;4895626;29;20190;-87
2024/01/17 17:24:08;;;;;;;8.50;4.53;;;;;;;;;;4874787;29;20644;-86
2024/01/17 17:27:12;;;;;;;7.80;5.23;;;;;;;;;;4862883;29;20182;-86
2024/01/17 17:30:16;;;;;;;11.13;7.07;;;;;;;;;;4874125;29;20182;-87
2024/01/17 17:33:20;;;;;;;11.93;8.73;;;;;;;;;;4884641;29;20209;-86
2024/01/17 17:36:25;;;;;;;14.33;9.63;;;;;;;;;;4873992;29;20222;-86
2024/01/17 17:39:29;;;;;;;12.57;9.50;;;;;;;;;;4885412;29;20636;-86
2024/01/17 17:42:33;;;;;;;12.70;9.93;;;;;;;;;;4864129;29;20182;-87
2024/01/17 17:45:38;;;;;;;12.57;8.20;;;;;;;;;;4874117;29;20222;-86
2024/01/17 17:48:42;;;;;;;9.43;7.93;;;;;;;;;;4885679;29;20190;-86
2024/01/17 17:51:46;;;;;;;12.07;8.07;;;;;;;;;;4864175;29;20186;-86
2024/01/17 17:54:57;;;;;;;9.20;7.17;;;;;;;;;;4863166;29;20213;-86
2024/01/17 17:58:01;;;;;;;12.77;8.07;;;;;;;;;;4863712;29;20191;-86
2024/01/17 18:01:05;;;;;;;12.43;8.10;;;;;;;;;;4874156;29;20190;-85
2024/01/17 18:04:09;;;;;;;14.60;7.33;;;;;;;;;;4873902;29;20175;-86
2024/01/17 18:07:14;;;;;;;38.23;22.03;;;;;;;;;;4863027;29;20191;-86
2024/01/17 18:10:20;;;;;;;8.87;6.60;;;;;;;;;;4872936;29;20191;-85
2024/01/17 18:13:25;;;;;;;8.53;5.10;;;;;;;;;;4872710;29;20214;-86
2024/01/17 18:16:31;;;;;;;6.67;4.83;;;;;;;;;;4862318;29;20592;-86